sensor_id;sensor_type;location;lat;lon;timestamp;P1;durP1;ratioP1;P2;durP2;ratioP2
30287;SDS011;17103;48.316;11.558;2023-02-28T00:01:03;3.65;;;1.80;;
30287;SDS011;17103;48.316;11.558;2023-02-28T00:03:28;5.03;;;1.95;;
30287;SDS011;17103;48.316;11.558;2023-02-28T00:05:54;2.42;;;1.70;;
30287;SDS011;17103;48.316;11.558;2023-02-28T00:08:21;2.92;;;1.50;;
30287;SDS011;17103;48.316;11.558;2023-02-28T00:10:46;5.03;;;1.73;;
30287;SDS011;17103;48.316;11.558;2023-02-28T00:13:12;3.78;;;1.60;;
30287;SDS011;17103;48.316;11.558;2023-02-28T00:15:38;3.10;;;1.70;;
30287;SDS011;17103;48.316;11.558;2023-02-28T00:18:03;2.75;;;1.67;;
30287;SDS011;17103;48.316;11.558;2023-02-28T00:20:29;2.38;;;1.40;;
30287;SDS011;17103;48.316;11.558;2023-02-28T00:22:55;3.40;;;1.70;;
30287;SDS011;17103;48.316;11.558;2023-02-28T00:25:22;3.22;;;1.75;;
30287;SDS011;17103;48.316;11.558;2023-02-28T00:27:49;3.60;;;2.25;;
30287;SDS011;17103;48.316;11.558;2023-02-28T00:30:19;2.75;;;1.90;;
30287;SDS011;17103;48.316;11.558;2023-02-28T00:32:48;2.45;;;1.65;;
30287;SDS011;17103;48.316;11.558;2023-02-28T00:35:15;3.03;;;1.58;;
30287;SDS011;17103;48.316;11.558;2023-02-28T00:37:41;4.72;;;1.80;;
30287;SDS011;17103;48.316;11.558;2023-02-28T00:40:08;2.92;;;1.50;;
30287;SDS011;17103;48.316;11.558;2023-02-28T00:42:35;2.60;;;1.60;;
30287;SDS011;17103;48.316;11.558;2023-02-28T00:45:02;3.38;;;1.80;;
30287;SDS011;17103;48.316;11.558;2023-02-28T00:47:29;2.65;;;1.45;;
30287;SDS011;17103;48.316;11.558;2023-02-28T00:49:55;2.55;;;1.75;;
30287;SDS011;17103;48.316;11.558;2023-02-28T00:52:21;2.92;;;1.60;;
30287;SDS011;17103;48.316;11.558;2023-02-28T00:54:46;2.55;;;1.40;;
30287;SDS011;17103;48.316;11.558;2023-02-28T00:57:12;2.58;;;1.40;;
30287;SDS011;17103;48.316;11.558;2023-02-28T00:59:38;2.15;;;1.30;;
30287;SDS011;17103;48.316;11.558;2023-02-28T01:02:03;2.47;;;1.63;;
30287;SDS011;17103;48.316;11.558;2023-02-28T01:04:30;2.33;;;1.52;;
30287;SDS011;17103;48.316;11.558;2023-02-28T01:06:55;1.80;;;1.10;;
30287;SDS011;17103;48.316;11.558;2023-02-28T01:09:21;6.05;;;1.70;;
30287;SDS011;17103;48.316;11.558;2023-02-28T01:11:47;3.13;;;1.65;;
30287;SDS011;17103;48.316;11.558;2023-02-28T01:14:13;3.28;;;2.03;;
30287;SDS011;17103;48.316;11.558;2023-02-28T01:16:42;3.55;;;1.70;;
30287;SDS011;17103;48.316;11.558;2023-02-28T01:19:08;4.35;;;2.00;;
30287;SDS011;17103;48.316;11.558;2023-02-28T01:21:34;3.78;;;1.73;;
30287;SDS011;17103;48.316;11.558;2023-02-28T01:24:00;2.20;;;1.30;;
30287;SDS011;17103;48.316;11.558;2023-02-28T01:26:26;2.63;;;1.42;;
30287;SDS011;17103;48.316;11.558;2023-02-28T01:28:52;1.95;;;1.25;;
30287;SDS011;17103;48.316;11.558;2023-02-28T01:31:19;2.67;;;1.50;;
30287;SDS011;17103;48.316;11.558;2023-02-28T01:33:46;1.95;;;1.65;;
30287;SDS011;17103;48.316;11.558;2023-02-28T01:36:13;3.63;;;2.05;;
30287;SDS011;17103;48.316;11.558;2023-02-28T01:38:41;2.83;;;1.67;;
30287;SDS011;17103;48.316;11.558;2023-02-28T01:41:07;2.20;;;1.70;;
30287;SDS011;17103;48.316;11.558;2023-02-28T01:46:07;3.40;;;2.20;;
30287;SDS011;17103;48.316;11.558;2023-02-28T01:48:34;3.30;;;2.00;;
30287;SDS011;17103;48.316;11.558;2023-02-28T01:51:09;3.78;;;1.80;;
30287;SDS011;17103;48.316;11.558;2023-02-28T01:53:39;2.95;;;2.00;;
30287;SDS011;17103;48.316;11.558;2023-02-28T01:56:09;3.28;;;1.50;;
30287;SDS011;17103;48.316;11.558;2023-02-28T01:58:36;2.88;;;1.63;;
30287;SDS011;17103;48.316;11.558;2023-02-28T02:01:03;3.38;;;1.95;;
30287;SDS011;17103;48.316;11.558;2023-02-28T02:03:29;3.03;;;1.55;;
30287;SDS011;17103;48.316;11.558;2023-02-28T02:05:56;2.63;;;1.85;;
30287;SDS011;17103;48.316;11.558;2023-02-28T02:08:23;5.45;;;2.20;;
30287;SDS011;17103;48.316;11.558;2023-02-28T02:10:52;5.97;;;2.10;;
30287;SDS011;17103;48.316;11.558;2023-02-28T02:16:27;3.25;;;1.65;;
30287;SDS011;17103;48.316;11.558;2023-02-28T02:32:36;7.10;;;2.95;;
30287;SDS011;17103;48.316;11.558;2023-02-28T02:35:21;4.15;;;2.60;;
30287;SDS011;17103;48.316;11.558;2023-02-28T02:40:47;3.05;;;1.70;;
30287;SDS011;17103;48.316;11.558;2023-02-28T02:46:15;3.40;;;2.08;;
30287;SDS011;17103;48.316;11.558;2023-02-28T02:48:48;4.10;;;2.53;;
30287;SDS011;17103;48.316;11.558;2023-02-28T02:51:17;4.53;;;2.10;;
30287;SDS011;17103;48.316;11.558;2023-02-28T02:53:55;2.80;;;1.85;;
30287;SDS011;17103;48.316;11.558;2023-02-28T02:56:41;4.35;;;2.15;;
30287;SDS011;17103;48.316;11.558;2023-02-28T02:59:11;5.15;;;2.10;;
30287;SDS011;17103;48.316;11.558;2023-02-28T03:01:40;4.70;;;2.65;;
30287;SDS011;17103;48.316;11.558;2023-02-28T03:04:13;5.22;;;2.58;;
30287;SDS011;17103;48.316;11.558;2023-02-28T03:06:46;3.88;;;2.13;;
30287;SDS011;17103;48.316;11.558;2023-02-28T03:09:12;4.20;;;2.05;;
30287;SDS011;17103;48.316;11.558;2023-02-28T03:11:38;4.63;;;2.10;;
30287;SDS011;17103;48.316;11.558;2023-02-28T03:19:49;3.60;;;1.77;;
30287;SDS011;17103;48.316;11.558;2023-02-28T03:27:43;4.53;;;2.55;;
30287;SDS011;17103;48.316;11.558;2023-02-28T03:30:36;3.33;;;2.25;;
30287;SDS011;17103;48.316;11.558;2023-02-28T03:33:18;3.53;;;2.28;;
30287;SDS011;17103;48.316;11.558;2023-02-28T03:35:55;3.80;;;2.50;;
30287;SDS011;17103;48.316;11.558;2023-02-28T03:38:35;4.80;;;2.65;;
30287;SDS011;17103;48.316;11.558;2023-02-28T03:41:19;4.97;;;3.20;;
30287;SDS011;17103;48.316;11.558;2023-02-28T03:43:53;4.05;;;2.55;;
30287;SDS011;17103;48.316;11.558;2023-02-28T03:46:32;4.38;;;2.78;;
30287;SDS011;17103;48.316;11.558;2023-02-28T03:49:14;4.25;;;2.53;;
30287;SDS011;17103;48.316;11.558;2023-02-28T03:51:43;4.10;;;2.33;;
30287;SDS011;17103;48.316;11.558;2023-02-28T03:54:12;4.57;;;2.70;;
30287;SDS011;17103;48.316;11.558;2023-02-28T03:56:56;5.18;;;2.70;;
30287;SDS011;17103;48.316;11.558;2023-02-28T04:01:55;4.70;;;2.25;;
30287;SDS011;17103;48.316;11.558;2023-02-28T04:04:23;4.65;;;2.70;;
30287;SDS011;17103;48.316;11.558;2023-02-28T04:06:50;4.10;;;2.83;;
30287;SDS011;17103;48.316;11.558;2023-02-28T04:09:16;4.00;;;2.60;;
30287;SDS011;17103;48.316;11.558;2023-02-28T04:11:44;5.63;;;2.75;;
30287;SDS011;17103;48.316;11.558;2023-02-28T04:14:16;4.05;;;2.65;;
30287;SDS011;17103;48.316;11.558;2023-02-28T04:16:42;6.05;;;3.65;;
30287;SDS011;17103;48.316;11.558;2023-02-28T04:19:08;4.47;;;3.05;;
30287;SDS011;17103;48.316;11.558;2023-02-28T04:21:37;5.35;;;3.10;;
30287;SDS011;17103;48.316;11.558;2023-02-28T04:24:05;7.10;;;2.88;;
30287;SDS011;17103;48.316;11.558;2023-02-28T04:26:33;5.95;;;3.00;;
30287;SDS011;17103;48.316;11.558;2023-02-28T04:29:00;4.00;;;2.78;;
30287;SDS011;17103;48.316;11.558;2023-02-28T04:31:27;6.13;;;3.42;;
30287;SDS011;17103;48.316;11.558;2023-02-28T04:33:53;5.47;;;3.15;;
30287;SDS011;17103;48.316;11.558;2023-02-28T04:36:19;4.82;;;3.65;;
30287;SDS011;17103;48.316;11.558;2023-02-28T04:38:45;3.75;;;2.70;;
30287;SDS011;17103;48.316;11.558;2023-02-28T04:41:12;4.38;;;2.75;;
30287;SDS011;17103;48.316;11.558;2023-02-28T04:43:38;4.55;;;3.05;;
30287;SDS011;17103;48.316;11.558;2023-02-28T04:46:04;5.85;;;3.08;;
30287;SDS011;17103;48.316;11.558;2023-02-28T04:48:31;7.20;;;3.47;;
30287;SDS011;17103;48.316;11.558;2023-02-28T04:51:05;4.97;;;3.22;;
30287;SDS011;17103;48.316;11.558;2023-02-28T04:53:36;4.35;;;3.15;;
30287;SDS011;17103;48.316;11.558;2023-02-28T04:56:03;4.30;;;3.05;;
30287;SDS011;17103;48.316;11.558;2023-02-28T04:58:29;3.90;;;2.78;;
30287;SDS011;17103;48.316;11.558;2023-02-28T05:01:07;4.47;;;3.22;;
30287;SDS011;17103;48.316;11.558;2023-02-28T05:03:40;7.45;;;3.20;;
30287;SDS011;17103;48.316;11.558;2023-02-28T05:06:06;6.43;;;3.38;;
30287;SDS011;17103;48.316;11.558;2023-02-28T05:08:33;5.78;;;3.38;;
30287;SDS011;17103;48.316;11.558;2023-02-28T05:10:59;6.50;;;4.00;;
30287;SDS011;17103;48.316;11.558;2023-02-28T05:13:26;6.13;;;3.90;;
30287;SDS011;17103;48.316;11.558;2023-02-28T05:15:52;6.07;;;3.67;;
30287;SDS011;17103;48.316;11.558;2023-02-28T05:18:18;8.18;;;4.07;;
30287;SDS011;17103;48.316;11.558;2023-02-28T05:20:44;7.45;;;4.32;;
30287;SDS011;17103;48.316;11.558;2023-02-28T05:23:13;5.65;;;4.15;;
30287;SDS011;17103;48.316;11.558;2023-02-28T05:25:41;6.07;;;4.75;;
30287;SDS011;17103;48.316;11.558;2023-02-28T05:28:07;5.43;;;3.90;;
30287;SDS011;17103;48.316;11.558;2023-02-28T05:30:33;6.75;;;4.50;;
30287;SDS011;17103;48.316;11.558;2023-02-28T05:35:28;9.13;;;4.80;;
30287;SDS011;17103;48.316;11.558;2023-02-28T05:37:54;6.10;;;3.72;;
30287;SDS011;17103;48.316;11.558;2023-02-28T05:40:19;6.65;;;4.55;;
30287;SDS011;17103;48.316;11.558;2023-02-28T05:42:45;6.75;;;4.20;;
30287;SDS011;17103;48.316;11.558;2023-02-28T05:45:11;6.93;;;4.50;;
30287;SDS011;17103;48.316;11.558;2023-02-28T05:47:37;6.45;;;4.38;;
30287;SDS011;17103;48.316;11.558;2023-02-28T05:50:03;6.03;;;4.60;;
30287;SDS011;17103;48.316;11.558;2023-02-28T05:52:31;5.15;;;4.00;;
30287;SDS011;17103;48.316;11.558;2023-02-28T05:54:57;7.25;;;4.95;;
30287;SDS011;17103;48.316;11.558;2023-02-28T05:57:23;5.93;;;3.78;;
30287;SDS011;17103;48.316;11.558;2023-02-28T05:59:50;7.00;;;4.03;;
30287;SDS011;17103;48.316;11.558;2023-02-28T06:02:17;6.25;;;4.40;;
30287;SDS011;17103;48.316;11.558;2023-02-28T06:04:43;7.40;;;3.95;;
30287;SDS011;17103;48.316;11.558;2023-02-28T06:07:09;6.43;;;3.90;;
30287;SDS011;17103;48.316;11.558;2023-02-28T06:09:35;6.60;;;4.15;;
30287;SDS011;17103;48.316;11.558;2023-02-28T06:12:03;6.20;;;4.30;;
30287;SDS011;17103;48.316;11.558;2023-02-28T06:14:34;7.43;;;4.50;;
30287;SDS011;17103;48.316;11.558;2023-02-28T06:17:01;7.88;;;4.22;;
30287;SDS011;17103;48.316;11.558;2023-02-28T06:19:29;6.68;;;4.28;;
30287;SDS011;17103;48.316;11.558;2023-02-28T06:21:56;5.28;;;4.30;;
30287;SDS011;17103;48.316;11.558;2023-02-28T06:24:24;5.78;;;4.07;;
30287;SDS011;17103;48.316;11.558;2023-02-28T06:26:53;7.80;;;5.38;;
30287;SDS011;17103;48.316;11.558;2023-02-28T06:29:18;6.85;;;4.22;;
30287;SDS011;17103;48.316;11.558;2023-02-28T06:31:45;5.47;;;4.00;;
30287;SDS011;17103;48.316;11.558;2023-02-28T06:34:13;7.30;;;4.50;;
30287;SDS011;17103;48.316;11.558;2023-02-28T06:36:39;7.00;;;4.45;;
30287;SDS011;17103;48.316;11.558;2023-02-28T06:39:07;7.60;;;4.40;;
30287;SDS011;17103;48.316;11.558;2023-02-28T06:41:35;7.13;;;4.47;;
30287;SDS011;17103;48.316;11.558;2023-02-28T06:44:05;8.85;;;5.43;;
30287;SDS011;17103;48.316;11.558;2023-02-28T06:46:36;6.75;;;4.57;;
30287;SDS011;17103;48.316;11.558;2023-02-28T06:49:03;6.40;;;4.32;;
30287;SDS011;17103;48.316;11.558;2023-02-28T06:51:32;8.93;;;4.60;;
30287;SDS011;17103;48.316;11.558;2023-02-28T06:53:58;6.50;;;4.40;;
30287;SDS011;17103;48.316;11.558;2023-02-28T06:56:24;7.32;;;5.05;;
30287;SDS011;17103;48.316;11.558;2023-02-28T06:58:50;10.10;;;5.55;;
30287;SDS011;17103;48.316;11.558;2023-02-28T07:01:17;6.70;;;4.55;;
30287;SDS011;17103;48.316;11.558;2023-02-28T07:03:44;7.70;;;4.57;;
30287;SDS011;17103;48.316;11.558;2023-02-28T07:06:10;6.90;;;4.65;;
30287;SDS011;17103;48.316;11.558;2023-02-28T07:08:35;8.10;;;5.05;;
30287;SDS011;17103;48.316;11.558;2023-02-28T07:11:02;8.85;;;5.18;;
30287;SDS011;17103;48.316;11.558;2023-02-28T07:13:30;9.57;;;5.13;;
30287;SDS011;17103;48.316;11.558;2023-02-28T07:15:58;8.63;;;4.53;;
30287;SDS011;17103;48.316;11.558;2023-02-28T07:18:29;8.02;;;5.38;;
30287;SDS011;17103;48.316;11.558;2023-02-28T07:20:54;7.85;;;4.90;;
30287;SDS011;17103;48.316;11.558;2023-02-28T07:23:20;7.07;;;5.07;;
30287;SDS011;17103;48.316;11.558;2023-02-28T07:25:46;7.50;;;5.13;;
30287;SDS011;17103;48.316;11.558;2023-02-28T07:28:12;6.07;;;4.45;;
30287;SDS011;17103;48.316;11.558;2023-02-28T07:30:38;6.82;;;5.60;;
30287;SDS011;17103;48.316;11.558;2023-02-28T07:33:04;7.05;;;4.70;;
30287;SDS011;17103;48.316;11.558;2023-02-28T07:35:30;8.63;;;5.57;;
30287;SDS011;17103;48.316;11.558;2023-02-28T07:37:57;10.48;;;5.78;;
30287;SDS011;17103;48.316;11.558;2023-02-28T07:40:25;7.22;;;4.80;;
30287;SDS011;17103;48.316;11.558;2023-02-28T07:42:51;8.02;;;4.60;;
30287;SDS011;17103;48.316;11.558;2023-02-28T07:45:16;8.50;;;5.38;;
30287;SDS011;17103;48.316;11.558;2023-02-28T07:47:42;7.57;;;5.40;;
30287;SDS011;17103;48.316;11.558;2023-02-28T07:50:10;9.60;;;7.15;;
30287;SDS011;17103;48.316;11.558;2023-02-28T07:52:38;8.77;;;6.13;;
30287;SDS011;17103;48.316;11.558;2023-02-28T07:55:07;16.40;;;10.23;;
30287;SDS011;17103;48.316;11.558;2023-02-28T07:57:34;16.67;;;10.82;;
30287;SDS011;17103;48.316;11.558;2023-02-28T08:00:01;15.80;;;9.93;;
30287;SDS011;17103;48.316;11.558;2023-02-28T08:02:28;17.95;;;11.20;;
30287;SDS011;17103;48.316;11.558;2023-02-28T08:04:54;20.30;;;12.43;;
30287;SDS011;17103;48.316;11.558;2023-02-28T08:07:21;26.60;;;14.25;;
30287;SDS011;17103;48.316;11.558;2023-02-28T08:09:47;12.13;;;7.75;;
30287;SDS011;17103;48.316;11.558;2023-02-28T08:12:13;8.45;;;5.00;;
30287;SDS011;17103;48.316;11.558;2023-02-28T08:14:39;8.05;;;5.50;;
30287;SDS011;17103;48.316;11.558;2023-02-28T08:17:06;7.55;;;5.10;;
30287;SDS011;17103;48.316;11.558;2023-02-28T08:19:32;10.13;;;6.78;;
30287;SDS011;17103;48.316;11.558;2023-02-28T08:21:58;9.35;;;6.20;;
30287;SDS011;17103;48.316;11.558;2023-02-28T08:24:24;10.30;;;5.47;;
30287;SDS011;17103;48.316;11.558;2023-02-28T08:26:51;8.60;;;5.07;;
30287;SDS011;17103;48.316;11.558;2023-02-28T08:29:17;9.80;;;6.93;;
30287;SDS011;17103;48.316;11.558;2023-02-28T08:31:43;8.70;;;5.78;;
30287;SDS011;17103;48.316;11.558;2023-02-28T08:34:10;10.85;;;5.75;;
30287;SDS011;17103;48.316;11.558;2023-02-28T08:36:38;9.45;;;5.65;;
30287;SDS011;17103;48.316;11.558;2023-02-28T08:39:04;9.90;;;5.53;;
30287;SDS011;17103;48.316;11.558;2023-02-28T08:41:31;8.05;;;5.50;;
30287;SDS011;17103;48.316;11.558;2023-02-28T08:43:57;8.77;;;5.90;;
30287;SDS011;17103;48.316;11.558;2023-02-28T08:46:23;7.95;;;6.03;;
30287;SDS011;17103;48.316;11.558;2023-02-28T08:48:53;7.85;;;5.32;;
30287;SDS011;17103;48.316;11.558;2023-02-28T08:51:24;8.80;;;6.13;;
30287;SDS011;17103;48.316;11.558;2023-02-28T08:53:57;9.75;;;6.63;;
30287;SDS011;17103;48.316;11.558;2023-02-28T08:56:25;10.20;;;6.65;;
30287;SDS011;17103;48.316;11.558;2023-02-28T08:58:51;9.68;;;6.35;;
30287;SDS011;17103;48.316;11.558;2023-02-28T09:01:21;11.95;;;6.00;;
30287;SDS011;17103;48.316;11.558;2023-02-28T09:03:49;14.75;;;7.53;;
30287;SDS011;17103;48.316;11.558;2023-02-28T09:06:16;11.88;;;6.95;;
30287;SDS011;17103;48.316;11.558;2023-02-28T09:08:43;12.73;;;8.23;;
30287;SDS011;17103;48.316;11.558;2023-02-28T09:11:11;8.18;;;6.05;;
30287;SDS011;17103;48.316;11.558;2023-02-28T09:13:37;11.68;;;6.30;;
30287;SDS011;17103;48.316;11.558;2023-02-28T09:16:05;11.85;;;7.22;;
30287;SDS011;17103;48.316;11.558;2023-02-28T09:18:33;10.77;;;6.38;;
30287;SDS011;17103;48.316;11.558;2023-02-28T09:21:06;8.55;;;6.13;;
30287;SDS011;17103;48.316;11.558;2023-02-28T09:23:35;8.52;;;6.00;;
30287;SDS011;17103;48.316;11.558;2023-02-28T09:26:03;10.98;;;6.13;;
30287;SDS011;17103;48.316;11.558;2023-02-28T09:28:29;9.32;;;7.10;;
30287;SDS011;17103;48.316;11.558;2023-02-28T09:30:56;9.27;;;6.45;;
30287;SDS011;17103;48.316;11.558;2023-02-28T09:33:51;7.65;;;6.18;;
30287;SDS011;17103;48.316;11.558;2023-02-28T09:36:18;10.82;;;6.65;;
30287;SDS011;17103;48.316;11.558;2023-02-28T09:38:45;11.00;;;6.25;;
30287;SDS011;17103;48.316;11.558;2023-02-28T09:41:32;12.80;;;6.43;;
30287;SDS011;17103;48.316;11.558;2023-02-28T09:44:05;9.80;;;6.78;;
30287;SDS011;17103;48.316;11.558;2023-02-28T09:46:42;8.48;;;6.50;;
30287;SDS011;17103;48.316;11.558;2023-02-28T09:49:15;12.50;;;6.38;;
30287;SDS011;17103;48.316;11.558;2023-02-28T09:54:20;9.50;;;6.25;;
30287;SDS011;17103;48.316;11.558;2023-02-28T09:56:53;9.18;;;7.03;;
30287;SDS011;17103;48.316;11.558;2023-02-28T10:07:37;10.63;;;6.20;;
30287;SDS011;17103;48.316;11.558;2023-02-28T10:10:26;10.30;;;6.65;;
30287;SDS011;17103;48.316;11.558;2023-02-28T10:15:45;11.55;;;6.88;;
30287;SDS011;17103;48.316;11.558;2023-02-28T10:18:16;10.13;;;6.55;;
30287;SDS011;17103;48.316;11.558;2023-02-28T10:20:47;9.70;;;6.10;;
30287;SDS011;17103;48.316;11.558;2023-02-28T10:28:45;9.73;;;6.30;;
30287;SDS011;17103;48.316;11.558;2023-02-28T10:31:11;9.38;;;6.15;;
30287;SDS011;17103;48.316;11.558;2023-02-28T10:33:48;7.55;;;5.82;;
30287;SDS011;17103;48.316;11.558;2023-02-28T10:36:15;9.93;;;6.13;;
30287;SDS011;17103;48.316;11.558;2023-02-28T10:38:43;7.63;;;5.60;;
30287;SDS011;17103;48.316;11.558;2023-02-28T10:41:17;8.75;;;5.93;;
30287;SDS011;17103;48.316;11.558;2023-02-28T10:46:48;11.48;;;6.05;;
30287;SDS011;17103;48.316;11.558;2023-02-28T10:49:22;9.20;;;6.45;;
30287;SDS011;17103;48.316;11.558;2023-02-28T10:51:52;8.77;;;6.10;;
30287;SDS011;17103;48.316;11.558;2023-02-28T10:54:22;8.68;;;6.50;;
30287;SDS011;17103;48.316;11.558;2023-02-28T10:59:44;7.07;;;5.47;;
30287;SDS011;17103;48.316;11.558;2023-02-28T11:02:28;9.48;;;6.03;;
30287;SDS011;17103;48.316;11.558;2023-02-28T11:04:56;9.10;;;6.25;;
30287;SDS011;17103;48.316;11.558;2023-02-28T11:07:22;8.60;;;5.72;;
30287;SDS011;17103;48.316;11.558;2023-02-28T11:09:50;8.05;;;6.38;;
30287;SDS011;17103;48.316;11.558;2023-02-28T11:12:29;8.32;;;5.18;;
30287;SDS011;17103;48.316;11.558;2023-02-28T11:15:04;8.13;;;5.88;;
30287;SDS011;17103;48.316;11.558;2023-02-28T11:17:42;10.02;;;5.93;;
30287;SDS011;17103;48.316;11.558;2023-02-28T11:20:10;11.23;;;6.50;;
30287;SDS011;17103;48.316;11.558;2023-02-28T11:22:45;7.85;;;5.72;;
30287;SDS011;17103;48.316;11.558;2023-02-28T11:25:32;8.10;;;6.22;;
30287;SDS011;17103;48.316;11.558;2023-02-28T11:28:01;11.60;;;7.38;;
30287;SDS011;17103;48.316;11.558;2023-02-28T11:33:18;6.95;;;5.30;;
30287;SDS011;17103;48.316;11.558;2023-02-28T11:35:46;7.18;;;5.32;;
30287;SDS011;17103;48.316;11.558;2023-02-28T11:38:14;8.70;;;5.95;;
30287;SDS011;17103;48.316;11.558;2023-02-28T11:40:43;8.10;;;5.95;;
30287;SDS011;17103;48.316;11.558;2023-02-28T11:56:53;8.50;;;5.28;;
30287;SDS011;17103;48.316;11.558;2023-02-28T12:02:33;6.35;;;5.35;;
30287;SDS011;17103;48.316;11.558;2023-02-28T12:13:41;8.82;;;5.47;;
30287;SDS011;17103;48.316;11.558;2023-02-28T12:16:28;8.23;;;6.47;;
30287;SDS011;17103;48.316;11.558;2023-02-28T12:19:26;7.75;;;5.47;;
30287;SDS011;17103;48.316;11.558;2023-02-28T12:27:28;8.40;;;6.53;;
30287;SDS011;17103;48.316;11.558;2023-02-28T12:32:50;9.05;;;6.35;;
30287;SDS011;17103;48.316;11.558;2023-02-28T12:35:32;7.57;;;6.63;;
30287;SDS011;17103;48.316;11.558;2023-02-28T12:41:04;6.35;;;5.43;;
30287;SDS011;17103;48.316;11.558;2023-02-28T12:43:57;8.10;;;6.50;;
30287;SDS011;17103;48.316;11.558;2023-02-28T12:46:38;7.63;;;5.88;;
30287;SDS011;17103;48.316;11.558;2023-02-28T12:49:31;8.73;;;6.30;;
30287;SDS011;17103;48.316;11.558;2023-02-28T12:51:57;8.63;;;6.07;;
30287;SDS011;17103;48.316;11.558;2023-02-28T13:00:16;8.05;;;5.93;;
30287;SDS011;17103;48.316;11.558;2023-02-28T13:05:32;10.38;;;6.18;;
30287;SDS011;17103;48.316;11.558;2023-02-28T13:11:29;7.45;;;5.78;;
30287;SDS011;17103;48.316;11.558;2023-02-28T13:14:00;8.60;;;6.18;;
30287;SDS011;17103;48.316;11.558;2023-02-28T13:16:42;6.75;;;6.00;;
30287;SDS011;17103;48.316;11.558;2023-02-28T13:19:39;9.25;;;5.40;;
30287;SDS011;17103;48.316;11.558;2023-02-28T13:24:52;6.43;;;5.40;;
30287;SDS011;17103;48.316;11.558;2023-02-28T13:36:07;6.95;;;6.25;;
30287;SDS011;17103;48.316;11.558;2023-02-28T13:38:41;7.72;;;6.40;;
30287;SDS011;17103;48.316;11.558;2023-02-28T13:44:09;10.65;;;6.18;;
30287;SDS011;17103;48.316;11.558;2023-02-28T13:47:15;8.23;;;5.75;;
30287;SDS011;17103;48.316;11.558;2023-02-28T13:51:52;7.00;;;5.35;;
30287;SDS011;17103;48.316;11.558;2023-02-28T13:59:46;7.22;;;5.55;;
30287;SDS011;17103;48.316;11.558;2023-02-28T14:05:15;8.30;;;5.40;;
30287;SDS011;17103;48.316;11.558;2023-02-28T14:07:57;8.40;;;6.53;;
30287;SDS011;17103;48.316;11.558;2023-02-28T14:10:33;7.88;;;6.00;;
30287;SDS011;17103;48.316;11.558;2023-02-28T14:16:13;6.55;;;5.57;;
30287;SDS011;17103;48.316;11.558;2023-02-28T14:18:42;5.90;;;5.22;;
30287;SDS011;17103;48.316;11.558;2023-02-28T14:21:39;6.78;;;5.72;;
30287;SDS011;17103;48.316;11.558;2023-02-28T14:24:22;9.27;;;5.75;;
30287;SDS011;17103;48.316;11.558;2023-02-28T14:27:11;8.75;;;6.13;;
30287;SDS011;17103;48.316;11.558;2023-02-28T14:30:01;6.72;;;5.72;;
30287;SDS011;17103;48.316;11.558;2023-02-28T14:33:00;8.05;;;6.03;;
30287;SDS011;17103;48.316;11.558;2023-02-28T14:38:28;7.50;;;5.60;;
30287;SDS011;17103;48.316;11.558;2023-02-28T14:41:22;7.88;;;6.22;;
30287;SDS011;17103;48.316;11.558;2023-02-28T14:43:58;8.55;;;5.95;;
30287;SDS011;17103;48.316;11.558;2023-02-28T14:46:38;7.30;;;6.10;;
30287;SDS011;17103;48.316;11.558;2023-02-28T14:49:18;8.13;;;5.45;;
30287;SDS011;17103;48.316;11.558;2023-02-28T14:51:50;8.73;;;5.75;;
30287;SDS011;17103;48.316;11.558;2023-02-28T14:54:38;7.57;;;5.70;;
30287;SDS011;17103;48.316;11.558;2023-02-28T14:57:05;6.93;;;5.82;;
30287;SDS011;17103;48.316;11.558;2023-02-28T14:59:32;8.82;;;6.32;;
30287;SDS011;17103;48.316;11.558;2023-02-28T15:02:16;6.53;;;5.50;;
30287;SDS011;17103;48.316;11.558;2023-02-28T15:04:57;8.85;;;5.93;;
30287;SDS011;17103;48.316;11.558;2023-02-28T15:07:35;8.13;;;5.82;;
30287;SDS011;17103;48.316;11.558;2023-02-28T15:12:45;9.02;;;6.65;;
30287;SDS011;17103;48.316;11.558;2023-02-28T15:15:17;10.52;;;5.45;;
30287;SDS011;17103;48.316;11.558;2023-02-28T15:17:49;8.77;;;5.85;;
30287;SDS011;17103;48.316;11.558;2023-02-28T15:20:19;7.63;;;6.00;;
30287;SDS011;17103;48.316;11.558;2023-02-28T15:22:46;8.82;;;5.90;;
30287;SDS011;17103;48.316;11.558;2023-02-28T15:25:18;7.35;;;6.15;;
30287;SDS011;17103;48.316;11.558;2023-02-28T15:27:48;7.47;;;5.82;;
30287;SDS011;17103;48.316;11.558;2023-02-28T15:30:30;7.53;;;5.60;;
30287;SDS011;17103;48.316;11.558;2023-02-28T15:35:39;7.20;;;5.38;;
30287;SDS011;17103;48.316;11.558;2023-02-28T15:40:51;7.90;;;5.72;;
30287;SDS011;17103;48.316;11.558;2023-02-28T15:46:12;7.93;;;6.05;;
30287;SDS011;17103;48.316;11.558;2023-02-28T15:48:53;8.90;;;5.60;;
30287;SDS011;17103;48.316;11.558;2023-02-28T15:51:22;7.53;;;6.20;;
30287;SDS011;17103;48.316;11.558;2023-02-28T15:54:00;7.95;;;6.20;;
30287;SDS011;17103;48.316;11.558;2023-02-28T15:56:33;6.50;;;5.10;;
30287;SDS011;17103;48.316;11.558;2023-02-28T15:59:05;8.38;;;6.15;;
30287;SDS011;17103;48.316;11.558;2023-02-28T16:01:37;10.55;;;6.93;;
30287;SDS011;17103;48.316;11.558;2023-02-28T16:04:05;11.30;;;6.75;;
30287;SDS011;17103;48.316;11.558;2023-02-28T16:06:41;8.40;;;5.78;;
30287;SDS011;17103;48.316;11.558;2023-02-28T16:09:12;7.32;;;5.97;;
30287;SDS011;17103;48.316;11.558;2023-02-28T16:11:44;8.40;;;6.07;;
30287;SDS011;17103;48.316;11.558;2023-02-28T16:14:20;8.40;;;6.13;;
30287;SDS011;17103;48.316;11.558;2023-02-28T16:16:50;10.32;;;6.65;;
30287;SDS011;17103;48.316;11.558;2023-02-28T16:19:18;8.15;;;6.63;;
30287;SDS011;17103;48.316;11.558;2023-02-28T16:21:46;7.82;;;5.65;;
30287;SDS011;17103;48.316;11.558;2023-02-28T16:24:13;8.02;;;5.93;;
30287;SDS011;17103;48.316;11.558;2023-02-28T16:26:40;10.30;;;6.07;;
30287;SDS011;17103;48.316;11.558;2023-02-28T16:29:11;7.88;;;6.05;;
30287;SDS011;17103;48.316;11.558;2023-02-28T16:31:44;8.32;;;6.60;;
30287;SDS011;17103;48.316;11.558;2023-02-28T16:34:11;9.52;;;5.93;;
30287;SDS011;17103;48.316;11.558;2023-02-28T16:36:38;10.65;;;7.85;;
30287;SDS011;17103;48.316;11.558;2023-02-28T16:39:04;9.25;;;7.13;;
30287;SDS011;17103;48.316;11.558;2023-02-28T16:41:30;9.43;;;6.63;;
30287;SDS011;17103;48.316;11.558;2023-02-28T16:43:56;8.85;;;6.18;;
30287;SDS011;17103;48.316;11.558;2023-02-28T16:46:27;8.98;;;7.28;;
30287;SDS011;17103;48.316;11.558;2023-02-28T16:51:23;9.43;;;7.10;;
30287;SDS011;17103;48.316;11.558;2023-02-28T16:53:49;9.65;;;7.72;;
30287;SDS011;17103;48.316;11.558;2023-02-28T16:56:17;8.05;;;6.70;;
30287;SDS011;17103;48.316;11.558;2023-02-28T16:58:48;9.55;;;8.07;;
30287;SDS011;17103;48.316;11.558;2023-02-28T17:01:15;12.38;;;9.27;;
30287;SDS011;17103;48.316;11.558;2023-02-28T17:03:42;10.82;;;8.50;;
30287;SDS011;17103;48.316;11.558;2023-02-28T17:06:15;11.07;;;9.00;;
30287;SDS011;17103;48.316;11.558;2023-02-28T17:08:48;10.23;;;8.38;;
30287;SDS011;17103;48.316;11.558;2023-02-28T17:11:15;9.88;;;8.60;;
30287;SDS011;17103;48.316;11.558;2023-02-28T17:13:41;10.93;;;8.50;;
30287;SDS011;17103;48.316;11.558;2023-02-28T17:16:09;14.18;;;8.82;;
30287;SDS011;17103;48.316;11.558;2023-02-28T17:18:54;9.38;;;8.13;;
30287;SDS011;17103;48.316;11.558;2023-02-28T17:21:22;12.93;;;8.15;;
30287;SDS011;17103;48.316;11.558;2023-02-28T17:23:48;11.65;;;9.10;;
30287;SDS011;17103;48.316;11.558;2023-02-28T17:26:15;12.90;;;9.60;;
30287;SDS011;17103;48.316;11.558;2023-02-28T17:28:45;16.35;;;9.30;;
30287;SDS011;17103;48.316;11.558;2023-02-28T17:31:11;13.32;;;9.68;;
30287;SDS011;17103;48.316;11.558;2023-02-28T17:33:38;9.98;;;8.07;;